Shimonoseki, Japan
Current Conditions -  °F | °C
As of 7:21 AM on Tuesday 25 Nov 2014 (Local Time) from RJFR Reporting Station
Broken Clouds Broken Clouds  
Wind Chill: 61°   Ceiling: 1300
Heat Index: 61°   Visibility: 4mi
Dew Point: 61°   Wind: 3mph
Humidity: 100%   Direction: 230°SW
Pressure: 29.8"   Gusts: NA
Location:  33.96°N, 130.94°E
Report Text: RJFR 242221Z 23003KT 190V250 6000 FEW004 SCT009 BKN013 16/16 Q1009 RMK 1ST004 3ST009 7CU013 A2980
Loading
Personal Weather Stations






























Interactive Weather Map New forecast layout! Learn more

10-Day Weather Forecast

Advertisements
Track Severe Weather on mobile